sensor_id;sensor_type;location;lat;lon;timestamp;P1;durP1;ratioP1;P2;durP2;ratioP2
20954;SDS011;10636;19.390;-99.256;2024-01-10T00:00:33;6.15;;;5.43;;
20954;SDS011;10636;19.390;-99.256;2024-01-10T00:03:02;7.25;;;5.78;;
20954;SDS011;10636;19.390;-99.256;2024-01-10T00:05:30;6.03;;;5.50;;
20954;SDS011;10636;19.390;-99.256;2024-01-10T00:07:59;9.18;;;6.22;;
20954;SDS011;10636;19.390;-99.256;2024-01-10T00:10:29;8.18;;;5.88;;
20954;SDS011;10636;19.390;-99.256;2024-01-10T00:12:58;7.10;;;6.35;;
20954;SDS011;10636;19.390;-99.256;2024-01-10T00:15:26;7.50;;;6.68;;
20954;SDS011;10636;19.390;-99.256;2024-01-10T00:17:55;9.40;;;6.55;;
20954;SDS011;10636;19.390;-99.256;2024-01-10T00:20:23;7.43;;;6.50;;
20954;SDS011;10636;19.390;-99.256;2024-01-10T00:22:52;9.75;;;7.00;;
20954;SDS011;10636;19.390;-99.256;2024-01-10T00:25:20;9.35;;;7.35;;
20954;SDS011;10636;19.390;-99.256;2024-01-10T00:27:51;9.80;;;7.78;;
20954;SDS011;10636;19.390;-99.256;2024-01-10T00:30:19;8.68;;;7.88;;
20954;SDS011;10636;19.390;-99.256;2024-01-10T00:32:48;10.68;;;8.00;;
20954;SDS011;10636;19.390;-99.256;2024-01-10T00:35:17;9.38;;;8.38;;
20954;SDS011;10636;19.390;-99.256;2024-01-10T00:37:45;9.73;;;8.43;;
20954;SDS011;10636;19.390;-99.256;2024-01-10T00:40:14;10.25;;;8.32;;
20954;SDS011;10636;19.390;-99.256;2024-01-10T00:42:43;13.85;;;9.00;;
20954;SDS011;10636;19.390;-99.256;2024-01-10T00:45:13;9.90;;;8.90;;
20954;SDS011;10636;19.390;-99.256;2024-01-10T00:47:43;11.52;;;9.40;;
20954;SDS011;10636;19.390;-99.256;2024-01-10T00:50:11;11.25;;;9.13;;
20954;SDS011;10636;19.390;-99.256;2024-01-10T00:52:42;10.35;;;9.20;;
20954;SDS011;10636;19.390;-99.256;2024-01-10T00:55:11;14.70;;;9.40;;
20954;SDS011;10636;19.390;-99.256;2024-01-10T00:57:42;11.25;;;8.57;;
20954;SDS011;10636;19.390;-99.256;2024-01-10T01:00:11;12.13;;;9.25;;
20954;SDS011;10636;19.390;-99.256;2024-01-10T01:02:42;11.23;;;9.70;;
20954;SDS011;10636;19.390;-99.256;2024-01-10T01:05:11;13.75;;;10.57;;
20954;SDS011;10636;19.390;-99.256;2024-01-10T01:07:39;11.98;;;10.52;;
20954;SDS011;10636;19.390;-99.256;2024-01-10T01:10:08;10.82;;;9.68;;
20954;SDS011;10636;19.390;-99.256;2024-01-10T01:12:37;13.75;;;9.77;;
20954;SDS011;10636;19.390;-99.256;2024-01-10T01:15:06;13.77;;;9.48;;
20954;SDS011;10636;19.390;-99.256;2024-01-10T01:17:36;11.18;;;9.73;;
20954;SDS011;10636;19.390;-99.256;2024-01-10T01:20:06;11.43;;;10.05;;
20954;SDS011;10636;19.390;-99.256;2024-01-10T01:22:35;11.80;;;9.52;;
20954;SDS011;10636;19.390;-99.256;2024-01-10T01:25:04;11.57;;;9.90;;
20954;SDS011;10636;19.390;-99.256;2024-01-10T01:27:33;10.43;;;9.25;;
20954;SDS011;10636;19.390;-99.256;2024-01-10T01:30:02;10.88;;;8.27;;
20954;SDS011;10636;19.390;-99.256;2024-01-10T01:32:31;9.77;;;8.05;;
20954;SDS011;10636;19.390;-99.256;2024-01-10T01:35:01;9.52;;;7.47;;
20954;SDS011;10636;19.390;-99.256;2024-01-10T01:37:30;8.88;;;7.40;;
20954;SDS011;10636;19.390;-99.256;2024-01-10T01:39:58;11.43;;;7.72;;
20954;SDS011;10636;19.390;-99.256;2024-01-10T01:42:27;9.88;;;7.28;;
20954;SDS011;10636;19.390;-99.256;2024-01-10T01:44:57;8.68;;;7.57;;
20954;SDS011;10636;19.390;-99.256;2024-01-10T01:47:26;8.00;;;7.10;;
20954;SDS011;10636;19.390;-99.256;2024-01-10T01:49:55;8.57;;;6.80;;
20954;SDS011;10636;19.390;-99.256;2024-01-10T01:52:26;8.65;;;7.00;;
20954;SDS011;10636;19.390;-99.256;2024-01-10T01:54:57;10.85;;;7.53;;
20954;SDS011;10636;19.390;-99.256;2024-01-10T01:57:26;7.53;;;6.63;;
20954;SDS011;10636;19.390;-99.256;2024-01-10T01:59:55;7.65;;;5.43;;
20954;SDS011;10636;19.390;-99.256;2024-01-10T02:02:23;10.52;;;5.97;;
20954;SDS011;10636;19.390;-99.256;2024-01-10T02:04:53;7.57;;;5.70;;
20954;SDS011;10636;19.390;-99.256;2024-01-10T02:07:22;7.25;;;5.63;;
20954;SDS011;10636;19.390;-99.256;2024-01-10T02:09:53;8.70;;;6.05;;
20954;SDS011;10636;19.390;-99.256;2024-01-10T02:12:22;7.72;;;6.25;;
20954;SDS011;10636;19.390;-99.256;2024-01-10T02:14:51;7.30;;;5.93;;
20954;SDS011;10636;19.390;-99.256;2024-01-10T02:17:20;6.85;;;5.80;;
20954;SDS011;10636;19.390;-99.256;2024-01-10T02:19:49;7.90;;;6.28;;
20954;SDS011;10636;19.390;-99.256;2024-01-10T02:22:34;6.82;;;6.20;;
20954;SDS011;10636;19.390;-99.256;2024-01-10T02:25:05;7.40;;;6.70;;
20954;SDS011;10636;19.390;-99.256;2024-01-10T02:27:34;8.38;;;7.57;;
20954;SDS011;10636;19.390;-99.256;2024-01-10T02:30:04;8.80;;;7.00;;
20954;SDS011;10636;19.390;-99.256;2024-01-10T02:32:34;8.13;;;7.40;;
20954;SDS011;10636;19.390;-99.256;2024-01-10T02:35:04;9.88;;;6.70;;
20954;SDS011;10636;19.390;-99.256;2024-01-10T02:37:33;8.13;;;6.88;;
20954;SDS011;10636;19.390;-99.256;2024-01-10T02:40:02;9.00;;;6.65;;
20954;SDS011;10636;19.390;-99.256;2024-01-10T02:42:33;9.95;;;8.95;;
20954;SDS011;10636;19.390;-99.256;2024-01-10T02:45:02;11.68;;;8.30;;
20954;SDS011;10636;19.390;-99.256;2024-01-10T02:47:31;16.67;;;8.98;;
20954;SDS011;10636;19.390;-99.256;2024-01-10T02:50:00;14.88;;;8.23;;
20954;SDS011;10636;19.390;-99.256;2024-01-10T02:52:29;16.63;;;8.63;;
20954;SDS011;10636;19.390;-99.256;2024-01-10T02:54:58;13.18;;;7.80;;
20954;SDS011;10636;19.390;-99.256;2024-01-10T02:57:28;12.35;;;8.80;;
20954;SDS011;10636;19.390;-99.256;2024-01-10T02:59:56;13.73;;;8.88;;
20954;SDS011;10636;19.390;-99.256;2024-01-10T03:02:25;15.57;;;13.27;;
20954;SDS011;10636;19.390;-99.256;2024-01-10T03:04:53;17.35;;;13.55;;
20954;SDS011;10636;19.390;-99.256;2024-01-10T03:07:22;14.85;;;11.90;;
20954;SDS011;10636;19.390;-99.256;2024-01-10T03:09:51;14.73;;;10.77;;
20954;SDS011;10636;19.390;-99.256;2024-01-10T03:12:20;15.30;;;10.88;;
20954;SDS011;10636;19.390;-99.256;2024-01-10T03:14:50;14.45;;;10.60;;
20954;SDS011;10636;19.390;-99.256;2024-01-10T03:17:19;20.55;;;18.92;;
20954;SDS011;10636;19.390;-99.256;2024-01-10T03:19:47;18.33;;;16.50;;
20954;SDS011;10636;19.390;-99.256;2024-01-10T03:22:16;19.90;;;18.42;;
20954;SDS011;10636;19.390;-99.256;2024-01-10T03:24:45;13.23;;;8.55;;
20954;SDS011;10636;19.390;-99.256;2024-01-10T03:27:13;28.75;;;26.70;;
20954;SDS011;10636;19.390;-99.256;2024-01-10T03:29:42;11.68;;;9.10;;
20954;SDS011;10636;19.390;-99.256;2024-01-10T03:32:12;12.73;;;9.00;;
20954;SDS011;10636;19.390;-99.256;2024-01-10T03:34:41;11.05;;;8.88;;
20954;SDS011;10636;19.390;-99.256;2024-01-10T03:37:09;26.20;;;24.52;;
20954;SDS011;10636;19.390;-99.256;2024-01-10T03:39:40;10.05;;;8.65;;
20954;SDS011;10636;19.390;-99.256;2024-01-10T03:42:08;10.93;;;8.05;;
20954;SDS011;10636;19.390;-99.256;2024-01-10T03:44:37;12.27;;;7.72;;
20954;SDS011;10636;19.390;-99.256;2024-01-10T03:47:05;22.05;;;20.58;;
20954;SDS011;10636;19.390;-99.256;2024-01-10T03:49:35;25.92;;;24.23;;
20954;SDS011;10636;19.390;-99.256;2024-01-10T03:52:04;9.75;;;7.90;;
20954;SDS011;10636;19.390;-99.256;2024-01-10T03:54:33;9.45;;;7.93;;
20954;SDS011;10636;19.390;-99.256;2024-01-10T03:57:02;26.23;;;24.63;;
20954;SDS011;10636;19.390;-99.256;2024-01-10T03:59:31;13.57;;;7.70;;
20954;SDS011;10636;19.390;-99.256;2024-01-10T04:02:00;10.02;;;7.38;;
20954;SDS011;10636;19.390;-99.256;2024-01-10T04:04:29;9.55;;;7.55;;
20954;SDS011;10636;19.390;-99.256;2024-01-10T04:06:59;10.23;;;7.40;;
20954;SDS011;10636;19.390;-99.256;2024-01-10T04:09:28;10.57;;;7.88;;
20954;SDS011;10636;19.390;-99.256;2024-01-10T04:11:56;9.43;;;7.38;;
20954;SDS011;10636;19.390;-99.256;2024-01-10T04:14:25;10.35;;;7.35;;
20954;SDS011;10636;19.390;-99.256;2024-01-10T04:16:54;26.20;;;24.55;;
20954;SDS011;10636;19.390;-99.256;2024-01-10T04:19:22;25.15;;;23.63;;
20954;SDS011;10636;19.390;-99.256;2024-01-10T04:21:51;9.23;;;7.80;;
20954;SDS011;10636;19.390;-99.256;2024-01-10T04:24:21;26.10;;;24.52;;
20954;SDS011;10636;19.390;-99.256;2024-01-10T04:26:49;26.48;;;24.90;;
20954;SDS011;10636;19.390;-99.256;2024-01-10T04:29:18;24.50;;;22.65;;
20954;SDS011;10636;19.390;-99.256;2024-01-10T04:31:47;27.85;;;26.10;;
20954;SDS011;10636;19.390;-99.256;2024-01-10T04:34:15;23.85;;;22.42;;
20954;SDS011;10636;19.390;-99.256;2024-01-10T04:36:44;11.65;;;7.35;;
20954;SDS011;10636;19.390;-99.256;2024-01-10T04:39:12;23.40;;;22.00;;
20954;SDS011;10636;19.390;-99.256;2024-01-10T04:41:43;23.67;;;22.10;;
20954;SDS011;10636;19.390;-99.256;2024-01-10T04:44:11;22.10;;;20.67;;
20954;SDS011;10636;19.390;-99.256;2024-01-10T04:46:40;24.95;;;23.42;;
20954;SDS011;10636;19.390;-99.256;2024-01-10T04:49:08;25.10;;;23.55;;
20954;SDS011;10636;19.390;-99.256;2024-01-10T04:51:37;22.75;;;21.45;;
20954;SDS011;10636;19.390;-99.256;2024-01-10T04:54:07;22.08;;;20.73;;
20954;SDS011;10636;19.390;-99.256;2024-01-10T04:56:35;26.55;;;25.00;;
20954;SDS011;10636;19.390;-99.256;2024-01-10T04:59:06;25.58;;;23.88;;
20954;SDS011;10636;19.390;-99.256;2024-01-10T05:01:34;7.63;;;6.85;;
20954;SDS011;10636;19.390;-99.256;2024-01-10T05:04:03;26.27;;;24.63;;
20954;SDS011;10636;19.390;-99.256;2024-01-10T05:06:32;24.85;;;23.45;;
20954;SDS011;10636;19.390;-99.256;2024-01-10T05:09:01;26.45;;;24.77;;
20954;SDS011;10636;19.390;-99.256;2024-01-10T05:11:30;23.77;;;22.40;;
20954;SDS011;10636;19.390;-99.256;2024-01-10T05:14:00;24.40;;;22.90;;
20954;SDS011;10636;19.390;-99.256;2024-01-10T05:16:30;8.18;;;6.70;;
20954;SDS011;10636;19.390;-99.256;2024-01-10T05:19:00;23.55;;;22.10;;
20954;SDS011;10636;19.390;-99.256;2024-01-10T05:21:30;25.15;;;23.67;;
20954;SDS011;10636;19.390;-99.256;2024-01-10T05:23:59;22.77;;;21.45;;
20954;SDS011;10636;19.390;-99.256;2024-01-10T05:26:28;22.15;;;20.85;;
20954;SDS011;10636;19.390;-99.256;2024-01-10T05:28:57;26.17;;;24.67;;
20954;SDS011;10636;19.390;-99.256;2024-01-10T05:31:26;7.97;;;6.90;;
20954;SDS011;10636;19.390;-99.256;2024-01-10T05:33:56;8.00;;;7.00;;
20954;SDS011;10636;19.390;-99.256;2024-01-10T05:36:25;8.65;;;7.50;;
20954;SDS011;10636;19.390;-99.256;2024-01-10T05:38:53;24.23;;;22.88;;
20954;SDS011;10636;19.390;-99.256;2024-01-10T05:41:22;8.70;;;7.05;;
20954;SDS011;10636;19.390;-99.256;2024-01-10T05:43:50;7.20;;;6.50;;
20954;SDS011;10636;19.390;-99.256;2024-01-10T05:46:19;27.48;;;25.98;;
20954;SDS011;10636;19.390;-99.256;2024-01-10T05:48:47;25.40;;;23.80;;
20954;SDS011;10636;19.390;-99.256;2024-01-10T05:51:17;28.10;;;26.60;;
20954;SDS011;10636;19.390;-99.256;2024-01-10T05:53:46;27.42;;;25.92;;
20954;SDS011;10636;19.390;-99.256;2024-01-10T05:56:15;9.20;;;6.50;;
20954;SDS011;10636;19.390;-99.256;2024-01-10T05:58:43;7.82;;;7.00;;
20954;SDS011;10636;19.390;-99.256;2024-01-10T06:01:12;23.30;;;21.95;;
20954;SDS011;10636;19.390;-99.256;2024-01-10T06:03:40;23.92;;;22.52;;
20954;SDS011;10636;19.390;-99.256;2024-01-10T06:06:09;24.77;;;23.25;;
20954;SDS011;10636;19.390;-99.256;2024-01-10T06:08:39;27.30;;;25.70;;
20954;SDS011;10636;19.390;-99.256;2024-01-10T06:11:08;23.23;;;21.77;;
20954;SDS011;10636;19.390;-99.256;2024-01-10T06:13:37;22.65;;;21.38;;
20954;SDS011;10636;19.390;-99.256;2024-01-10T06:16:06;7.82;;;6.53;;
20954;SDS011;10636;19.390;-99.256;2024-01-10T06:18:35;7.22;;;6.53;;
20954;SDS011;10636;19.390;-99.256;2024-01-10T06:21:04;18.33;;;17.23;;
20954;SDS011;10636;19.390;-99.256;2024-01-10T06:23:32;19.25;;;17.92;;
20954;SDS011;10636;19.390;-99.256;2024-01-10T06:26:03;7.60;;;6.35;;
20954;SDS011;10636;19.390;-99.256;2024-01-10T06:28:32;17.60;;;16.58;;
20954;SDS011;10636;19.390;-99.256;2024-01-10T06:31:00;18.23;;;17.02;;
20954;SDS011;10636;19.390;-99.256;2024-01-10T06:33:29;20.27;;;19.10;;
20954;SDS011;10636;19.390;-99.256;2024-01-10T06:35:57;21.83;;;20.50;;
20954;SDS011;10636;19.390;-99.256;2024-01-10T06:38:26;19.38;;;18.27;;
20954;SDS011;10636;19.390;-99.256;2024-01-10T06:40:54;19.80;;;18.50;;
20954;SDS011;10636;19.390;-99.256;2024-01-10T06:43:25;19.52;;;18.50;;
20954;SDS011;10636;19.390;-99.256;2024-01-10T06:45:53;19.05;;;17.92;;
20954;SDS011;10636;19.390;-99.256;2024-01-10T06:48:24;18.13;;;17.08;;
20954;SDS011;10636;19.390;-99.256;2024-01-10T06:50:52;9.20;;;8.50;;
20954;SDS011;10636;19.390;-99.256;2024-01-10T06:53:21;15.65;;;14.55;;
20954;SDS011;10636;19.390;-99.256;2024-01-10T06:55:49;7.78;;;6.15;;
20954;SDS011;10636;19.390;-99.256;2024-01-10T06:58:18;9.73;;;9.02;;
20954;SDS011;10636;19.390;-99.256;2024-01-10T07:00:48;9.43;;;8.63;;
20954;SDS011;10636;19.390;-99.256;2024-01-10T07:03:18;8.68;;;7.88;;
20954;SDS011;10636;19.390;-99.256;2024-01-10T07:05:46;7.55;;;6.13;;
20954;SDS011;10636;19.390;-99.256;2024-01-10T07:08:15;7.88;;;7.20;;
20954;SDS011;10636;19.390;-99.256;2024-01-10T07:10:45;6.85;;;6.15;;
20954;SDS011;10636;19.390;-99.256;2024-01-10T07:13:14;7.05;;;5.70;;
20954;SDS011;10636;19.390;-99.256;2024-01-10T07:15:42;6.70;;;5.75;;
20954;SDS011;10636;19.390;-99.256;2024-01-10T07:18:12;7.70;;;6.10;;
20954;SDS011;10636;19.390;-99.256;2024-01-10T07:20:41;6.28;;;5.60;;
20954;SDS011;10636;19.390;-99.256;2024-01-10T07:23:10;7.85;;;5.95;;
20954;SDS011;10636;19.390;-99.256;2024-01-10T07:25:38;6.95;;;6.22;;
20954;SDS011;10636;19.390;-99.256;2024-01-10T07:28:07;6.63;;;6.13;;
20954;SDS011;10636;19.390;-99.256;2024-01-10T07:30:35;7.20;;;6.50;;
20954;SDS011;10636;19.390;-99.256;2024-01-10T07:33:04;6.35;;;5.75;;
20954;SDS011;10636;19.390;-99.256;2024-01-10T07:35:35;7.47;;;6.70;;
20954;SDS011;10636;19.390;-99.256;2024-01-10T07:38:03;6.70;;;6.00;;
20954;SDS011;10636;19.390;-99.256;2024-01-10T07:40:33;7.57;;;6.88;;
20954;SDS011;10636;19.390;-99.256;2024-01-10T07:43:01;7.22;;;5.90;;
20954;SDS011;10636;19.390;-99.256;2024-01-10T07:45:30;6.15;;;5.55;;
20954;SDS011;10636;19.390;-99.256;2024-01-10T07:47:59;5.97;;;5.43;;
20954;SDS011;10636;19.390;-99.256;2024-01-10T07:50:28;6.72;;;5.40;;
20954;SDS011;10636;19.390;-99.256;2024-01-10T07:52:58;5.88;;;5.38;;
20954;SDS011;10636;19.390;-99.256;2024-01-10T07:55:27;5.85;;;5.35;;
20954;SDS011;10636;19.390;-99.256;2024-01-10T07:57:56;7.28;;;6.57;;
20954;SDS011;10636;19.390;-99.256;2024-01-10T08:00:24;6.25;;;5.50;;
20954;SDS011;10636;19.390;-99.256;2024-01-10T08:02:53;7.22;;;6.50;;
20954;SDS011;10636;19.390;-99.256;2024-01-10T08:05:22;6.43;;;5.82;;
20954;SDS011;10636;19.390;-99.256;2024-01-10T08:07:50;6.25;;;5.65;;
20954;SDS011;10636;19.390;-99.256;2024-01-10T08:10:20;6.25;;;5.20;;
20954;SDS011;10636;19.390;-99.256;2024-01-10T08:12:49;6.82;;;5.43;;
20954;SDS011;10636;19.390;-99.256;2024-01-10T08:15:18;6.50;;;5.97;;
20954;SDS011;10636;19.390;-99.256;2024-01-10T08:17:47;6.22;;;5.63;;
20954;SDS011;10636;19.390;-99.256;2024-01-10T08:20:16;6.50;;;5.90;;
20954;SDS011;10636;19.390;-99.256;2024-01-10T08:22:46;5.70;;;5.20;;
20954;SDS011;10636;19.390;-99.256;2024-01-10T08:25:15;6.32;;;5.18;;
20954;SDS011;10636;19.390;-99.256;2024-01-10T08:27:46;6.22;;;5.32;;
20954;SDS011;10636;19.390;-99.256;2024-01-10T08:30:14;6.00;;;5.40;;
20954;SDS011;10636;19.390;-99.256;2024-01-10T08:32:43;5.43;;;4.93;;
20954;SDS011;10636;19.390;-99.256;2024-01-10T08:35:12;7.47;;;5.07;;
20954;SDS011;10636;19.390;-99.256;2024-01-10T08:37:40;6.55;;;5.90;;
20954;SDS011;10636;19.390;-99.256;2024-01-10T08:40:10;6.57;;;6.03;;
20954;SDS011;10636;19.390;-99.256;2024-01-10T08:42:40;5.75;;;5.10;;
20954;SDS011;10636;19.390;-99.256;2024-01-10T08:45:11;5.07;;;4.60;;
20954;SDS011;10636;19.390;-99.256;2024-01-10T08:47:40;5.72;;;5.00;;
20954;SDS011;10636;19.390;-99.256;2024-01-10T08:50:09;7.00;;;6.25;;
20954;SDS011;10636;19.390;-99.256;2024-01-10T08:52:38;6.15;;;5.55;;
20954;SDS011;10636;19.390;-99.256;2024-01-10T08:55:07;6.70;;;5.70;;
20954;SDS011;10636;19.390;-99.256;2024-01-10T08:57:36;6.03;;;5.43;;
20954;SDS011;10636;19.390;-99.256;2024-01-10T09:00:05;7.85;;;5.38;;
20954;SDS011;10636;19.390;-99.256;2024-01-10T09:02:39;6.60;;;5.57;;
20954;SDS011;10636;19.390;-99.256;2024-01-10T09:05:07;6.30;;;5.80;;
20954;SDS011;10636;19.390;-99.256;2024-01-10T09:07:36;5.75;;;5.20;;
20954;SDS011;10636;19.390;-99.256;2024-01-10T09:10:05;6.28;;;5.30;;
20954;SDS011;10636;19.390;-99.256;2024-01-10T09:12:34;5.93;;;5.30;;
20954;SDS011;10636;19.390;-99.256;2024-01-10T09:15:03;7.47;;;5.50;;
20954;SDS011;10636;19.390;-99.256;2024-01-10T09:17:33;7.07;;;5.80;;
20954;SDS011;10636;19.390;-99.256;2024-01-10T09:20:04;5.85;;;5.25;;
20954;SDS011;10636;19.390;-99.256;2024-01-10T09:22:34;6.20;;;5.60;;
20954;SDS011;10636;19.390;-99.256;2024-01-10T09:25:03;6.20;;;5.60;;
20954;SDS011;10636;19.390;-99.256;2024-01-10T09:27:32;5.68;;;5.03;;
20954;SDS011;10636;19.390;-99.256;2024-01-10T09:30:01;6.13;;;5.53;;
20954;SDS011;10636;19.390;-99.256;2024-01-10T09:32:34;6.03;;;5.45;;
20954;SDS011;10636;19.390;-99.256;2024-01-10T09:35:05;6.57;;;5.82;;
20954;SDS011;10636;19.390;-99.256;2024-01-10T09:37:35;5.65;;;5.15;;
20954;SDS011;10636;19.390;-99.256;2024-01-10T09:40:04;5.97;;;5.47;;
20954;SDS011;10636;19.390;-99.256;2024-01-10T09:42:34;6.57;;;5.03;;
20954;SDS011;10636;19.390;-99.256;2024-01-10T09:45:04;6.15;;;5.55;;
20954;SDS011;10636;19.390;-99.256;2024-01-10T09:47:34;5.90;;;5.30;;
20954;SDS011;10636;19.390;-99.256;2024-01-10T09:50:07;5.63;;;4.90;;
20954;SDS011;10636;19.390;-99.256;2024-01-10T09:52:39;5.35;;;4.82;;
20954;SDS011;10636;19.390;-99.256;2024-01-10T09:55:11;5.82;;;5.18;;
20954;SDS011;10636;19.390;-99.256;2024-01-10T09:57:42;6.38;;;5.78;;
20954;SDS011;10636;19.390;-99.256;2024-01-10T10:00:11;5.97;;;5.00;;
20954;SDS011;10636;19.390;-99.256;2024-01-10T10:02:42;6.43;;;5.75;;
20954;SDS011;10636;19.390;-99.256;2024-01-10T10:05:15;6.18;;;5.00;;
20954;SDS011;10636;19.390;-99.256;2024-01-10T10:07:45;5.97;;;5.00;;
20954;SDS011;10636;19.390;-99.256;2024-01-10T10:10:14;5.72;;;5.15;;
20954;SDS011;10636;19.390;-99.256;2024-01-10T10:12:44;5.28;;;4.45;;
20954;SDS011;10636;19.390;-99.256;2024-01-10T10:15:13;6.00;;;5.10;;
20954;SDS011;10636;19.390;-99.256;2024-01-10T10:17:43;5.32;;;4.82;;
20954;SDS011;10636;19.390;-99.256;2024-01-10T10:20:17;6.35;;;5.95;;
20954;SDS011;10636;19.390;-99.256;2024-01-10T10:25:36;6.95;;;5.63;;
20954;SDS011;10636;19.390;-99.256;2024-01-10T10:28:10;5.68;;;5.28;;
20954;SDS011;10636;19.390;-99.256;2024-01-10T10:30:39;5.50;;;4.68;;
20954;SDS011;10636;19.390;-99.256;2024-01-10T10:33:07;7.07;;;5.25;;
20954;SDS011;10636;19.390;-99.256;2024-01-10T10:35:38;7.10;;;6.60;;
20954;SDS011;10636;19.390;-99.256;2024-01-10T10:38:07;6.05;;;4.78;;
20954;SDS011;10636;19.390;-99.256;2024-01-10T10:40:36;5.68;;;5.00;;
20954;SDS011;10636;19.390;-99.256;2024-01-10T10:43:05;5.13;;;4.68;;
20954;SDS011;10636;19.390;-99.256;2024-01-10T10:45:41;5.45;;;4.63;;
20954;SDS011;10636;19.390;-99.256;2024-01-10T10:48:15;5.90;;;4.80;;
20954;SDS011;10636;19.390;-99.256;2024-01-10T10:50:50;5.55;;;4.55;;
20954;SDS011;10636;19.390;-99.256;2024-01-10T10:53:23;6.43;;;5.82;;
20954;SDS011;10636;19.390;-99.256;2024-01-10T10:55:55;6.13;;;5.47;;
20954;SDS011;10636;19.390;-99.256;2024-01-10T10:58:26;5.95;;;5.40;;
20954;SDS011;10636;19.390;-99.256;2024-01-10T11:00:55;5.63;;;5.15;;
20954;SDS011;10636;19.390;-99.256;2024-01-10T11:03:24;7.50;;;6.90;;
20954;SDS011;10636;19.390;-99.256;2024-01-10T11:05:56;6.38;;;5.78;;
20954;SDS011;10636;19.390;-99.256;2024-01-10T11:08:29;6.25;;;5.65;;
20954;SDS011;10636;19.390;-99.256;2024-01-10T11:11:03;5.30;;;4.80;;
20954;SDS011;10636;19.390;-99.256;2024-01-10T11:13:38;6.20;;;5.60;;
20954;SDS011;10636;19.390;-99.256;2024-01-10T11:16:28;6.15;;;5.55;;
20954;SDS011;10636;19.390;-99.256;2024-01-10T11:22:26;5.30;;;4.80;;
20954;SDS011;10636;19.390;-99.256;2024-01-10T11:25:04;6.05;;;5.45;;
20954;SDS011;10636;19.390;-99.256;2024-01-10T11:27:33;5.70;;;5.03;;
20954;SDS011;10636;19.390;-99.256;2024-01-10T11:30:04;5.53;;;4.85;;
20954;SDS011;10636;19.390;-99.256;2024-01-10T11:32:34;5.22;;;4.72;;
20954;SDS011;10636;19.390;-99.256;2024-01-10T11:35:05;6.97;;;6.47;;
20954;SDS011;10636;19.390;-99.256;2024-01-10T11:37:42;5.97;;;4.90;;
20954;SDS011;10636;19.390;-99.256;2024-01-10T11:40:12;7.30;;;6.70;;
20954;SDS011;10636;19.390;-99.256;2024-01-10T11:42:41;6.38;;;5.80;;
20954;SDS011;10636;19.390;-99.256;2024-01-10T11:45:10;9.13;;;8.50;;
20954;SDS011;10636;19.390;-99.256;2024-01-10T11:47:59;6.30;;;5.78;;
20954;SDS011;10636;19.390;-99.256;2024-01-10T11:50:28;8.75;;;7.97;;
20954;SDS011;10636;19.390;-99.256;2024-01-10T11:52:59;10.23;;;9.23;;
20954;SDS011;10636;19.390;-99.256;2024-01-10T11:55:46;20.00;;;18.63;;
20954;SDS011;10636;19.390;-99.256;2024-01-10T11:58:16;18.38;;;17.02;;
20954;SDS011;10636;19.390;-99.256;2024-01-10T12:00:44;19.48;;;17.88;;
20954;SDS011;10636;19.390;-99.256;2024-01-10T12:03:15;17.50;;;16.17;;
20954;SDS011;10636;19.390;-99.256;2024-01-10T12:05:45;19.85;;;18.50;;
20954;SDS011;10636;19.390;-99.256;2024-01-10T12:08:17;21.20;;;19.70;;
20954;SDS011;10636;19.390;-99.256;2024-01-10T12:10:45;9.45;;;8.20;;
20954;SDS011;10636;19.390;-99.256;2024-01-10T12:13:14;23.08;;;21.63;;
20954;SDS011;10636;19.390;-99.256;2024-01-10T12:15:43;21.90;;;20.55;;
20954;SDS011;10636;19.390;-99.256;2024-01-10T12:18:11;23.45;;;21.98;;
20954;SDS011;10636;19.390;-99.256;2024-01-10T12:20:40;22.35;;;21.08;;
20954;SDS011;10636;19.390;-99.256;2024-01-10T12:23:10;19.10;;;18.00;;
20954;SDS011;10636;19.390;-99.256;2024-01-10T12:25:41;6.90;;;6.20;;
20954;SDS011;10636;19.390;-99.256;2024-01-10T12:28:10;25.63;;;24.20;;
20954;SDS011;10636;19.390;-99.256;2024-01-10T12:30:42;7.90;;;6.40;;
20954;SDS011;10636;19.390;-99.256;2024-01-10T12:33:11;23.15;;;21.90;;
20954;SDS011;10636;19.390;-99.256;2024-01-10T12:35:40;7.65;;;6.60;;
20954;SDS011;10636;19.390;-99.256;2024-01-10T12:38:10;23.60;;;22.20;;
20954;SDS011;10636;19.390;-99.256;2024-01-10T12:40:38;8.00;;;5.80;;
20954;SDS011;10636;19.390;-99.256;2024-01-10T12:43:09;19.45;;;18.15;;
20954;SDS011;10636;19.390;-99.256;2024-01-10T12:45:38;6.22;;;5.35;;
20954;SDS011;10636;19.390;-99.256;2024-01-10T12:48:13;16.63;;;15.60;;
20954;SDS011;10636;19.390;-99.256;2024-01-10T12:50:42;10.50;;;9.70;;
20954;SDS011;10636;19.390;-99.256;2024-01-10T12:53:11;6.35;;;5.40;;
20954;SDS011;10636;19.390;-99.256;2024-01-10T12:55:45;15.10;;;14.10;;
20954;SDS011;10636;19.390;-99.256;2024-01-10T12:58:14;6.68;;;5.10;;
20954;SDS011;10636;19.390;-99.256;2024-01-10T13:00:42;6.47;;;5.50;;
20954;SDS011;10636;19.390;-99.256;2024-01-10T13:03:11;15.60;;;14.35;;
20954;SDS011;10636;19.390;-99.256;2024-01-10T13:05:40;9.00;;;8.15;;
20954;SDS011;10636;19.390;-99.256;2024-01-10T13:08:09;5.65;;;5.05;;
20954;SDS011;10636;19.390;-99.256;2024-01-10T13:10:37;6.53;;;5.13;;
20954;SDS011;10636;19.390;-99.256;2024-01-10T13:13:08;9.23;;;8.43;;
20954;SDS011;10636;19.390;-99.256;2024-01-10T13:15:43;8.40;;;6.60;;
20954;SDS011;10636;19.390;-99.256;2024-01-10T13:18:12;8.10;;;5.28;;
20954;SDS011;10636;19.390;-99.256;2024-01-10T13:20:41;8.10;;;7.40;;
20954;SDS011;10636;19.390;-99.256;2024-01-10T13:23:10;7.32;;;6.63;;
20954;SDS011;10636;19.390;-99.256;2024-01-10T13:25:39;7.18;;;6.55;;
20954;SDS011;10636;19.390;-99.256;2024-01-10T13:28:10;8.05;;;7.22;;
20954;SDS011;10636;19.390;-99.256;2024-01-10T13:30:42;7.18;;;6.47;;
20954;SDS011;10636;19.390;-99.256;2024-01-10T13:33:13;6.72;;;6.05;;
20954;SDS011;10636;19.390;-99.256;2024-01-10T13:35:42;7.68;;;5.80;;
20954;SDS011;10636;19.390;-99.256;2024-01-10T13:38:10;6.53;;;5.93;;
20954;SDS011;10636;19.390;-99.256;2024-01-10T13:40:39;7.07;;;6.15;;
20954;SDS011;10636;19.390;-99.256;2024-01-10T13:43:10;8.73;;;5.60;;
20954;SDS011;10636;19.390;-99.256;2024-01-10T13:45:38;7.65;;;5.40;;
20954;SDS011;10636;19.390;-99.256;2024-01-10T13:48:07;6.90;;;6.30;;
20954;SDS011;10636;19.390;-99.256;2024-01-10T13:50:36;7.55;;;5.75;;
20954;SDS011;10636;19.390;-99.256;2024-01-10T13:53:04;8.02;;;6.75;;
20954;SDS011;10636;19.390;-99.256;2024-01-10T13:55:33;9.65;;;5.97;;
20954;SDS011;10636;19.390;-99.256;2024-01-10T13:58:02;7.93;;;6.82;;
20954;SDS011;10636;19.390;-99.256;2024-01-10T14:00:32;8.40;;;6.45;;
20954;SDS011;10636;19.390;-99.256;2024-01-10T14:03:00;8.38;;;6.45;;
20954;SDS011;10636;19.390;-99.256;2024-01-10T14:05:29;8.30;;;6.47;;
20954;SDS011;10636;19.390;-99.256;2024-01-10T14:07:58;7.70;;;6.25;;
20954;SDS011;10636;19.390;-99.256;2024-01-10T14:10:26;7.68;;;6.57;;
20954;SDS011;10636;19.390;-99.256;2024-01-10T14:12:55;10.43;;;6.55;;
20954;SDS011;10636;19.390;-99.256;2024-01-10T14:15:24;8.50;;;6.35;;
20954;SDS011;10636;19.390;-99.256;2024-01-10T14:17:55;8.82;;;5.95;;
20954;SDS011;10636;19.390;-99.256;2024-01-10T14:20:24;8.80;;;6.10;;
20954;SDS011;10636;19.390;-99.256;2024-01-10T14:22:52;9.85;;;6.35;;
20954;SDS011;10636;19.390;-99.256;2024-01-10T14:25:21;8.32;;;6.03;;
20954;SDS011;10636;19.390;-99.256;2024-01-10T14:27:49;6.65;;;5.60;;
20954;SDS011;10636;19.390;-99.256;2024-01-10T14:30:18;6.95;;;6.10;;
20954;SDS011;10636;19.390;-99.256;2024-01-10T14:32:47;8.18;;;5.95;;